sensor_id;sensor_type;location;lat;lon;timestamp;pressure;altitude;pressure_sealevel;temperature;humidity
18533;BME280;9396;51.510;11.934;2022-11-20T00:00:15;100290.13;;;-1.57;88.24
18533;BME280;9396;51.510;11.934;2022-11-20T00:02:42;100291.03;;;-1.58;87.61
18533;BME280;9396;51.510;11.934;2022-11-20T00:05:09;100290.44;;;-1.63;88.09
18533;BME280;9396;51.510;11.934;2022-11-20T00:07:35;100292.28;;;-1.65;87.97
18533;BME280;9396;51.510;11.934;2022-11-20T00:10:02;100287.69;;;-1.60;87.94
18533;BME280;9396;51.510;11.934;2022-11-20T00:12:31;100281.53;;;-1.59;88.44
18533;BME280;9396;51.510;11.934;2022-11-20T00:14:57;100276.41;;;-1.61;87.98
18533;BME280;9396;51.510;11.934;2022-11-20T00:17:24;100265.41;;;-1.66;88.02
18533;BME280;9396;51.510;11.934;2022-11-20T00:19:51;100278.00;;;-2.08;88.10
18533;BME280;9396;51.510;11.934;2022-11-20T00:22:17;100274.13;;;-1.99;88.56
18533;BME280;9396;51.510;11.934;2022-11-20T00:24:44;100281.03;;;-2.15;88.98
18533;BME280;9396;51.510;11.934;2022-11-20T00:27:10;100285.06;;;-2.10;89.24
18533;BME280;9396;51.510;11.934;2022-11-20T00:29:38;100275.88;;;-2.00;89.55
18533;BME280;9396;51.510;11.934;2022-11-20T00:32:05;100275.03;;;-2.00;89.29
18533;BME280;9396;51.510;11.934;2022-11-20T00:34:32;100270.53;;;-1.81;89.12
18533;BME280;9396;51.510;11.934;2022-11-20T00:36:58;100274.97;;;-1.66;88.88
18533;BME280;9396;51.510;11.934;2022-11-20T00:39:25;100268.78;;;-1.64;88.23
18533;BME280;9396;51.510;11.934;2022-11-20T00:41:51;100264.72;;;-1.69;87.77
18533;BME280;9396;51.510;11.934;2022-11-20T00:44:18;100270.41;;;-1.78;87.57
18533;BME280;9396;51.510;11.934;2022-11-20T00:46:46;100267.19;;;-1.83;87.43
18533;BME280;9396;51.510;11.934;2022-11-20T00:49:13;100257.69;;;-1.84;88.14
18533;BME280;9396;51.510;11.934;2022-11-20T00:51:39;100255.03;;;-2.00;88.15
18533;BME280;9396;51.510;11.934;2022-11-20T00:54:06;100260.31;;;-2.19;88.66
18533;BME280;9396;51.510;11.934;2022-11-20T00:56:33;100259.78;;;-2.08;89.00
18533;BME280;9396;51.510;11.934;2022-11-20T00:59:00;100257.59;;;-1.83;88.36
18533;BME280;9396;51.510;11.934;2022-11-20T01:01:27;100258.88;;;-1.74;88.11
18533;BME280;9396;51.510;11.934;2022-11-20T01:03:57;100228.25;;;-1.86;88.52
18533;BME280;9396;51.510;11.934;2022-11-20T01:06:26;100268.13;;;-1.69;87.18
18533;BME280;9396;51.510;11.934;2022-11-20T01:08:55;100261.06;;;-1.82;87.20
18533;BME280;9396;51.510;11.934;2022-11-20T01:11:23;100258.63;;;-1.85;87.04
18533;BME280;9396;51.510;11.934;2022-11-20T01:13:52;100265.19;;;-1.78;87.36
18533;BME280;9396;51.510;11.934;2022-11-20T01:16:20;100256.13;;;-1.71;87.10
18533;BME280;9396;51.510;11.934;2022-11-20T01:18:50;100265.19;;;-1.78;86.88
18533;BME280;9396;51.510;11.934;2022-11-20T01:21:20;100257.97;;;-1.73;87.32
18533;BME280;9396;51.510;11.934;2022-11-20T01:23:48;100258.56;;;-1.68;87.18
18533;BME280;9396;51.510;11.934;2022-11-20T01:26:17;100254.91;;;-1.81;86.92
18533;BME280;9396;51.510;11.934;2022-11-20T01:28:45;100262.34;;;-1.74;87.40
18533;BME280;9396;51.510;11.934;2022-11-20T01:31:13;100260.81;;;-1.78;88.10
18533;BME280;9396;51.510;11.934;2022-11-20T01:33:41;100258.97;;;-1.76;87.84
18533;BME280;9396;51.510;11.934;2022-11-20T01:36:09;100258.63;;;-1.85;87.65
18533;BME280;9396;51.510;11.934;2022-11-20T01:38:37;100257.59;;;-1.83;88.01
18533;BME280;9396;51.510;11.934;2022-11-20T01:41:05;100248.03;;;-1.82;87.74
18533;BME280;9396;51.510;11.934;2022-11-20T01:43:32;100248.53;;;-1.76;87.89
18533;BME280;9396;51.510;11.934;2022-11-20T01:46:19;100242.16;;;-1.70;87.35
18533;BME280;9396;51.510;11.934;2022-11-20T01:48:52;100245.22;;;-1.62;87.12
18533;BME280;9396;51.510;11.934;2022-11-20T01:51:26;100237.53;;;-1.65;86.69
18533;BME280;9396;51.510;11.934;2022-11-20T01:53:58;100241.16;;;-1.68;86.02
18533;BME280;9396;51.510;11.934;2022-11-20T01:56:28;100233.75;;;-1.75;86.51
18533;BME280;9396;51.510;11.934;2022-11-20T01:58:58;100229.97;;;-1.70;86.86
18533;BME280;9396;51.510;11.934;2022-11-20T02:01:27;100228.22;;;-1.69;86.51
18533;BME280;9396;51.510;11.934;2022-11-20T02:03:54;100232.81;;;-1.74;86.61
18533;BME280;9396;51.510;11.934;2022-11-20T02:06:25;100175.25;;;-2.02;86.91
18533;BME280;9396;51.510;11.934;2022-11-20T02:08:52;100229.97;;;-1.70;86.01
18533;BME280;9396;51.510;11.934;2022-11-20T02:11:20;100233.50;;;-1.71;86.20
18533;BME280;9396;51.510;11.934;2022-11-20T02:13:48;100239.38;;;-1.67;86.47
18533;BME280;9396;51.510;11.934;2022-11-20T02:16:16;100229.03;;;-1.69;85.68
18533;BME280;9396;51.510;11.934;2022-11-20T02:18:45;100223.59;;;-1.64;85.88
18533;BME280;9396;51.510;11.934;2022-11-20T02:21:20;100224.47;;;-1.81;85.82
18533;BME280;9396;51.510;11.934;2022-11-20T02:24:05;100226.00;;;-1.77;86.21
18533;BME280;9396;51.510;11.934;2022-11-20T02:26:39;100228.72;;;-1.78;86.00
18533;BME280;9396;51.510;11.934;2022-11-20T02:29:06;100223.91;;;-1.70;85.79
18533;BME280;9396;51.510;11.934;2022-11-20T02:31:36;100224.16;;;-1.75;86.52
18533;BME280;9396;51.510;11.934;2022-11-20T02:34:04;100226.53;;;-1.70;86.12
18533;BME280;9396;51.510;11.934;2022-11-20T02:36:31;100217.78;;;-1.69;86.27
18533;BME280;9396;51.510;11.934;2022-11-20T02:38:59;100212.41;;;-1.66;85.96
18533;BME280;9396;51.510;11.934;2022-11-20T02:41:35;100213.47;;;-1.70;85.79
18533;BME280;9396;51.510;11.934;2022-11-20T02:44:03;100218.59;;;-1.84;85.57
18533;BME280;9396;51.510;11.934;2022-11-20T02:46:30;100218.59;;;-1.84;86.31
18533;BME280;9396;51.510;11.934;2022-11-20T02:48:57;100208.16;;;-1.84;86.72
18533;BME280;9396;51.510;11.934;2022-11-20T02:51:24;100206.50;;;-1.85;86.74
18533;BME280;9396;51.510;11.934;2022-11-20T02:53:51;100211.25;;;-1.93;86.94
18533;BME280;9396;51.510;11.934;2022-11-20T02:56:17;100208.47;;;-1.90;86.74
18533;BME280;9396;51.510;11.934;2022-11-20T02:58:45;100210.00;;;-1.86;86.45
18533;BME280;9396;51.510;11.934;2022-11-20T03:01:12;100210.47;;;-1.78;86.25
18533;BME280;9396;51.510;11.934;2022-11-20T03:03:38;100211.91;;;-1.73;86.14
18533;BME280;9396;51.510;11.934;2022-11-20T03:06:05;100197.25;;;-1.75;85.54
18533;BME280;9396;51.510;11.934;2022-11-20T03:08:32;100195.59;;;-1.76;84.87
18533;BME280;9396;51.510;11.934;2022-11-20T03:11:03;100191.78;;;-1.86;84.94
18533;BME280;9396;51.510;11.934;2022-11-20T03:13:29;100190.78;;;-1.84;84.87
18533;BME280;9396;51.510;11.934;2022-11-20T03:15:57;100183.53;;;-1.79;84.67
18533;BME280;9396;51.510;11.934;2022-11-20T03:18:27;100177.47;;;-1.79;84.79
18533;BME280;9396;51.510;11.934;2022-11-20T03:20:57;100182.94;;;-1.99;85.00
18533;BME280;9396;51.510;11.934;2022-11-20T03:23:24;100174.63;;;-2.23;85.39
18533;BME280;9396;51.510;11.934;2022-11-20T03:25:50;100181.38;;;-2.19;85.26
18533;BME280;9396;51.510;11.934;2022-11-20T03:28:17;100176.97;;;-2.19;85.41
18533;BME280;9396;51.510;11.934;2022-11-20T03:30:44;100185.34;;;-2.12;85.69
18533;BME280;9396;51.510;11.934;2022-11-20T03:33:12;100181.72;;;-2.09;85.24
18533;BME280;9396;51.510;11.934;2022-11-20T03:35:38;100173.31;;;-2.14;84.96
18533;BME280;9396;51.510;11.934;2022-11-20T03:38:05;100172.91;;;-2.07;84.91
18533;BME280;9396;51.510;11.934;2022-11-20T03:40:35;100175.81;;;-2.13;84.69
18533;BME280;9396;51.510;11.934;2022-11-20T03:43:02;100166.44;;;-2.15;85.04
18533;BME280;9396;51.510;11.934;2022-11-20T03:45:28;100172.31;;;-2.12;85.43
18533;BME280;9396;51.510;11.934;2022-11-20T03:47:55;100178.22;;;-2.08;85.57
18533;BME280;9396;51.510;11.934;2022-11-20T03:50:23;100175.66;;;-2.10;85.30
18533;BME280;9396;51.510;11.934;2022-11-20T03:52:49;100172.16;;;-2.09;84.74
18533;BME280;9396;51.510;11.934;2022-11-20T03:55:16;100174.97;;;-2.13;84.44
18533;BME280;9396;51.510;11.934;2022-11-20T03:57:43;100176.38;;;-2.24;84.76
18533;BME280;9396;51.510;11.934;2022-11-20T04:00:11;100179.75;;;-2.22;85.13
18533;BME280;9396;51.510;11.934;2022-11-20T04:02:37;100185.38;;;-2.13;84.81
18533;BME280;9396;51.510;11.934;2022-11-20T04:05:05;100185.25;;;-2.10;84.49
18533;BME280;9396;51.510;11.934;2022-11-20T04:07:34;100182.78;;;-2.13;83.98
18533;BME280;9396;51.510;11.934;2022-11-20T04:10:02;100186.63;;;-2.21;83.78
18533;BME280;9396;51.510;11.934;2022-11-20T04:12:31;100193.88;;;-2.43;83.64
18533;BME280;9396;51.510;11.934;2022-11-20T04:14:58;100182.09;;;-2.84;84.82
18533;BME280;9396;51.510;11.934;2022-11-20T04:17:25;100180.69;;;-2.74;85.32
18533;BME280;9396;51.510;11.934;2022-11-20T04:19:51;100186.69;;;-2.72;85.72
18533;BME280;9396;51.510;11.934;2022-11-20T04:22:18;100182.31;;;-2.54;85.75
18533;BME280;9396;51.510;11.934;2022-11-20T04:24:46;100190.03;;;-2.53;85.56
18533;BME280;9396;51.510;11.934;2022-11-20T04:27:13;100184.69;;;-2.50;85.85
18533;BME280;9396;51.510;11.934;2022-11-20T04:29:39;100178.09;;;-2.40;85.47
18533;BME280;9396;51.510;11.934;2022-11-20T04:32:06;100178.47;;;-2.47;84.75
18533;BME280;9396;51.510;11.934;2022-11-20T04:34:33;100172.13;;;-2.42;85.09
18533;BME280;9396;51.510;11.934;2022-11-20T04:37:00;100169.13;;;-2.34;85.25
18533;BME280;9396;51.510;11.934;2022-11-20T04:39:26;100159.41;;;-2.31;85.03
18533;BME280;9396;51.510;11.934;2022-11-20T04:41:54;100161.16;;;-2.31;84.98
18533;BME280;9396;51.510;11.934;2022-11-20T04:44:35;100161.81;;;-2.28;84.95
18533;BME280;9396;51.510;11.934;2022-11-20T04:47:01;100159.84;;;-2.23;84.74
18533;BME280;9396;51.510;11.934;2022-11-20T04:49:28;100165.19;;;-2.26;84.33
18533;BME280;9396;51.510;11.934;2022-11-20T04:51:56;100153.66;;;-2.37;84.24
18533;BME280;9396;51.510;11.934;2022-11-20T04:54:23;100153.47;;;-2.50;84.41
18533;BME280;9396;51.510;11.934;2022-11-20T04:56:50;100156.53;;;-2.59;84.69
18533;BME280;9396;51.510;11.934;2022-11-20T04:59:18;100155.28;;;-2.69;85.52
18533;BME280;9396;51.510;11.934;2022-11-20T05:01:44;100152.00;;;-2.55;85.20
18533;BME280;9396;51.510;11.934;2022-11-20T05:04:11;100149.16;;;-2.51;85.37
18533;BME280;9396;51.510;11.934;2022-11-20T05:06:38;100149.84;;;-2.47;84.98
18533;BME280;9396;51.510;11.934;2022-11-20T05:09:04;100155.59;;;-2.41;84.94
18533;BME280;9396;51.510;11.934;2022-11-20T05:11:31;100151.66;;;-2.49;84.62
18533;BME280;9396;51.510;11.934;2022-11-20T05:13:58;100157.59;;;-2.46;84.32
18533;BME280;9396;51.510;11.934;2022-11-20T05:16:27;100143.19;;;-2.53;84.73
18533;BME280;9396;51.510;11.934;2022-11-20T05:18:54;100140.44;;;-2.50;85.54
18533;BME280;9396;51.510;11.934;2022-11-20T05:21:21;100146.00;;;-2.40;85.49
18533;BME280;9396;51.510;11.934;2022-11-20T05:23:48;100142.25;;;-2.35;85.94
18533;BME280;9396;51.510;11.934;2022-11-20T05:26:17;100136.63;;;-2.27;85.90
18533;BME280;9396;51.510;11.934;2022-11-20T05:28:44;100144.38;;;-2.26;86.17
18533;BME280;9396;51.510;11.934;2022-11-20T05:31:12;100140.94;;;-2.26;85.76
18533;BME280;9396;51.510;11.934;2022-11-20T05:33:41;100141.44;;;-2.20;85.66
18533;BME280;9396;51.510;11.934;2022-11-20T05:36:09;100143.81;;;-2.15;85.61
18533;BME280;9396;51.510;11.934;2022-11-20T05:38:36;100139.53;;;-2.16;85.44
18533;BME280;9396;51.510;11.934;2022-11-20T05:41:04;100142.03;;;-2.14;85.79
18533;BME280;9396;51.510;11.934;2022-11-20T05:43:32;100145.25;;;-2.09;85.68
18533;BME280;9396;51.510;11.934;2022-11-20T05:45:59;100136.19;;;-2.02;85.45
18533;BME280;9396;51.510;11.934;2022-11-20T05:48:25;100127.47;;;-2.01;85.23
18533;BME280;9396;51.510;11.934;2022-11-20T05:50:53;100135.66;;;-2.09;84.65
18533;BME280;9396;51.510;11.934;2022-11-20T05:53:20;100128.09;;;-2.13;85.09
18533;BME280;9396;51.510;11.934;2022-11-20T05:55:56;100129.78;;;-2.12;84.61
18533;BME280;9396;51.510;11.934;2022-11-20T05:58:22;100133.97;;;-2.10;84.89
18533;BME280;9396;51.510;11.934;2022-11-20T06:00:49;100126.59;;;-2.17;84.69
18533;BME280;9396;51.510;11.934;2022-11-20T06:03:16;100123.41;;;-2.40;85.07
18533;BME280;9396;51.510;11.934;2022-11-20T06:05:42;100133.19;;;-2.28;85.14
18533;BME280;9396;51.510;11.934;2022-11-20T06:08:10;100126.97;;;-2.25;85.16
18533;BME280;9396;51.510;11.934;2022-11-20T06:10:37;100125.81;;;-2.20;84.86
18533;BME280;9396;51.510;11.934;2022-11-20T06:13:03;100122.16;;;-2.15;84.84
18533;BME280;9396;51.510;11.934;2022-11-20T06:15:30;100125.75;;;-2.18;84.72
18533;BME280;9396;51.510;11.934;2022-11-20T06:17:57;100131.03;;;-2.20;84.72
18533;BME280;9396;51.510;11.934;2022-11-20T06:20:24;100134.50;;;-2.19;84.87
18533;BME280;9396;51.510;11.934;2022-11-20T06:22:50;100136.75;;;-2.13;85.77
18533;BME280;9396;51.510;11.934;2022-11-20T06:25:18;100132.97;;;-2.07;85.71
18533;BME280;9396;51.510;11.934;2022-11-20T06:27:45;100139.53;;;-2.16;85.78
18533;BME280;9396;51.510;11.934;2022-11-20T06:30:12;100135.91;;;-2.13;85.75
18533;BME280;9396;51.510;11.934;2022-11-20T06:32:39;100139.19;;;-2.10;85.54
18533;BME280;9396;51.510;11.934;2022-11-20T06:35:06;100135.50;;;-2.06;84.99
18533;BME280;9396;51.510;11.934;2022-11-20T06:37:33;100136.53;;;-2.08;84.76
18533;BME280;9396;51.510;11.934;2022-11-20T06:40:00;100132.63;;;-2.17;84.57
18533;BME280;9396;51.510;11.934;2022-11-20T06:42:28;100126.91;;;-2.24;84.44
18533;BME280;9396;51.510;11.934;2022-11-20T06:44:54;100131.44;;;-2.27;84.27
18533;BME280;9396;51.510;11.934;2022-11-20T06:47:21;100133.22;;;-2.45;84.23
18533;BME280;9396;51.510;11.934;2022-11-20T06:49:47;100124.91;;;-2.51;84.88
18533;BME280;9396;51.510;11.934;2022-11-20T06:52:14;100129.69;;;-2.44;84.85
18533;BME280;9396;51.510;11.934;2022-11-20T06:54:41;100124.69;;;-2.31;84.89
18533;BME280;9396;51.510;11.934;2022-11-20T06:57:07;100128.66;;;-2.24;84.53
18533;BME280;9396;51.510;11.934;2022-11-20T06:59:35;100126.72;;;-2.21;84.74
18533;BME280;9396;51.510;11.934;2022-11-20T07:02:02;100126.00;;;-2.23;84.60
18533;BME280;9396;51.510;11.934;2022-11-20T07:04:29;100117.84;;;-2.17;84.55
18533;BME280;9396;51.510;11.934;2022-11-20T07:06:55;100124.06;;;-2.19;84.54
18533;BME280;9396;51.510;11.934;2022-11-20T07:09:22;100115.81;;;-2.11;84.43
18533;BME280;9396;51.510;11.934;2022-11-20T07:11:48;100110.78;;;-2.14;84.43
18533;BME280;9396;51.510;11.934;2022-11-20T07:14:15;100129.97;;;-2.15;84.57
18533;BME280;9396;51.510;11.934;2022-11-20T07:16:43;100113.56;;;-2.17;84.61
18533;BME280;9396;51.510;11.934;2022-11-20T07:19:10;100116.84;;;-2.14;84.67
18533;BME280;9396;51.510;11.934;2022-11-20T07:21:36;100118.53;;;-2.13;84.79
18533;BME280;9396;51.510;11.934;2022-11-20T07:24:03;100129.69;;;-2.11;84.92
18533;BME280;9396;51.510;11.934;2022-11-20T07:26:30;100124.41;;;-2.09;85.05
18533;BME280;9396;51.510;11.934;2022-11-20T07:28:56;100124.09;;;-2.03;85.02
18533;BME280;9396;51.510;11.934;2022-11-20T07:31:23;100120.41;;;-1.99;85.15
18533;BME280;9396;51.510;11.934;2022-11-20T07:33:51;100120.53;;;-2.02;85.20
18533;BME280;9396;51.510;11.934;2022-11-20T07:36:18;100121.41;;;-2.02;85.16
18533;BME280;9396;51.510;11.934;2022-11-20T07:38:44;100111.81;;;-2.01;85.57
18533;BME280;9396;51.510;11.934;2022-11-20T07:41:11;100118.88;;;-2.03;85.72
18533;BME280;9396;51.510;11.934;2022-11-20T07:43:38;100123.53;;;-2.26;86.39
18533;BME280;9396;51.510;11.934;2022-11-20T07:46:04;100118.88;;;-2.19;87.19
18533;BME280;9396;51.510;11.934;2022-11-20T07:48:31;100119.38;;;-2.12;87.57
18533;BME280;9396;51.510;11.934;2022-11-20T07:50:59;100112.00;;;-1.89;88.37
18533;BME280;9396;51.510;11.934;2022-11-20T07:53:25;100112.84;;;-1.73;88.30
18533;BME280;9396;51.510;11.934;2022-11-20T07:55:52;100113.94;;;-1.77;88.23
18533;BME280;9396;51.510;11.934;2022-11-20T07:58:19;100114.44;;;-1.70;88.77
18533;BME280;9396;51.510;11.934;2022-11-20T08:00:46;100117.53;;;-1.79;89.31
18533;BME280;9396;51.510;11.934;2022-11-20T08:03:13;100122.69;;;-1.62;89.30
18533;BME280;9396;51.510;11.934;2022-11-20T08:05:39;100115.03;;;-1.50;89.61
18533;BME280;9396;51.510;11.934;2022-11-20T08:08:07;100109.13;;;-1.38;89.96
18533;BME280;9396;51.510;11.934;2022-11-20T08:10:34;100111.91;;;-1.41;89.64
18533;BME280;9396;51.510;11.934;2022-11-20T08:13:01;100113.84;;;-1.91;90.48
18533;BME280;9396;51.510;11.934;2022-11-20T08:15:49;100038.84;;;-2.17;91.24
18533;BME280;9396;51.510;11.934;2022-11-20T08:18:17;100119.41;;;-1.66;90.98
18533;BME280;9396;51.510;11.934;2022-11-20T08:20:44;100115.69;;;-1.93;91.82
18533;BME280;9396;51.510;11.934;2022-11-20T08:23:12;100120.31;;;-1.67;91.82
18533;BME280;9396;51.510;11.934;2022-11-20T08:25:38;100113.84;;;-1.91;91.58
18533;BME280;9396;51.510;11.934;2022-11-20T08:28:07;100113.69;;;-1.88;93.26
18533;BME280;9396;51.510;11.934;2022-11-20T08:30:35;100114.25;;;-1.67;92.67
18533;BME280;9396;51.510;11.934;2022-11-20T08:33:04;100099.28;;;-1.79;92.98
18533;BME280;9396;51.510;11.934;2022-11-20T08:35:32;100122.75;;;-1.79;93.21
18533;BME280;9396;51.510;11.934;2022-11-20T08:38:00;100123.44;;;-1.91;93.63
18533;BME280;9396;51.510;11.934;2022-11-20T08:40:28;100133.03;;;-2.25;95.73
18533;BME280;9396;51.510;11.934;2022-11-20T08:42:54;100121.91;;;-1.95;96.39
18533;BME280;9396;51.510;11.934;2022-11-20T08:45:21;100127.88;;;-1.93;96.08
18533;BME280;9396;51.510;11.934;2022-11-20T08:47:48;100120.06;;;-1.93;96.77
18533;BME280;9396;51.510;11.934;2022-11-20T08:50:16;100124.69;;;-1.98;97.43
18533;BME280;9396;51.510;11.934;2022-11-20T08:52:43;100118.38;;;-1.94;97.55
18533;BME280;9396;51.510;11.934;2022-11-20T08:55:10;100122.16;;;-2.00;97.39
18533;BME280;9396;51.510;11.934;2022-11-20T08:57:38;100127.09;;;-1.95;97.49
18533;BME280;9396;51.510;11.934;2022-11-20T09:00:06;100113.34;;;-1.51;97.29
18533;BME280;9396;51.510;11.934;2022-11-20T09:02:33;100114.50;;;-1.25;96.93
18533;BME280;9396;51.510;11.934;2022-11-20T09:05:00;100111.00;;;-1.10;95.79
18533;BME280;9396;51.510;11.934;2022-11-20T09:07:28;100113.25;;;-1.04;95.30
18533;BME280;9396;51.510;11.934;2022-11-20T09:09:55;100114.59;;;-0.97;95.41
18533;BME280;9396;51.510;11.934;2022-11-20T09:12:22;100102.94;;;-0.91;95.18
18533;BME280;9396;51.510;11.934;2022-11-20T09:14:50;100103.00;;;-1.07;95.08
18533;BME280;9396;51.510;11.934;2022-11-20T09:17:17;100100.69;;;-0.97;96.27
18533;BME280;9396;51.510;11.934;2022-11-20T09:19:43;100096.19;;;-0.66;95.29
18533;BME280;9396;51.510;11.934;2022-11-20T09:22:10;100095.38;;;-0.52;94.37
18533;BME280;9396;51.510;11.934;2022-11-20T09:24:36;100092.22;;;-0.57;93.68
18533;BME280;9396;51.510;11.934;2022-11-20T09:27:04;100091.56;;;-0.47;93.76
18533;BME280;9396;51.510;11.934;2022-11-20T09:29:31;100097.13;;;-0.53;94.03
18533;BME280;9396;51.510;11.934;2022-11-20T09:31:59;100097.53;;;-0.59;93.67
18533;BME280;9396;51.510;11.934;2022-11-20T09:34:26;100096.50;;;-0.28;93.49
18533;BME280;9396;51.510;11.934;2022-11-20T09:36:52;100097.13;;;-0.11;93.10
18533;BME280;9396;51.510;11.934;2022-11-20T09:39:19;100093.59;;;0.05;92.61
18533;BME280;9396;51.510;11.934;2022-11-20T09:42:08;100086.69;;;-0.11;91.71
18533;BME280;9396;51.510;11.934;2022-11-20T09:44:57;100013.94;;;-0.45;91.44
18533;BME280;9396;51.510;11.934;2022-11-20T09:47:37;100087.91;;;-0.02;92.36
18533;BME280;9396;51.510;11.934;2022-11-20T09:50:23;100088.75;;;-0.16;92.11
18533;BME280;9396;51.510;11.934;2022-11-20T09:53:10;100087.44;;;-0.37;92.65
18533;BME280;9396;51.510;11.934;2022-11-20T09:55:39;100083.91;;;-0.22;92.19
18533;BME280;9396;51.510;11.934;2022-11-20T09:58:07;100007.25;;;-0.77;92.61
18533;BME280;9396;51.510;11.934;2022-11-20T10:00:37;100088.66;;;-0.28;92.85
18533;BME280;9396;51.510;11.934;2022-11-20T10:03:12;100076.53;;;-0.29;92.84
18533;BME280;9396;51.510;11.934;2022-11-20T10:05:44;100083.72;;;-0.47;93.10
18533;BME280;9396;51.510;11.934;2022-11-20T10:08:16;100076.78;;;-0.62;94.15
18533;BME280;9396;51.510;11.934;2022-11-20T10:10:48;100076.97;;;-0.79;95.17
18533;BME280;9396;51.510;11.934;2022-11-20T10:13:37;100072.28;;;-0.88;95.23
18533;BME280;9396;51.510;11.934;2022-11-20T10:16:15;100072.09;;;-0.85;95.13
18533;BME280;9396;51.510;11.934;2022-11-20T10:18:58;100071.56;;;-0.76;96.00
18533;BME280;9396;51.510;11.934;2022-11-20T10:21:38;100064.78;;;-0.64;95.58
18533;BME280;9396;51.510;11.934;2022-11-20T10:24:44;100059.25;;;-0.18;95.43
18533;BME280;9396;51.510;11.934;2022-11-20T10:27:50;100043.06;;;0.04;94.25
18533;BME280;9396;51.510;11.934;2022-11-20T10:30:22;100052.72;;;-0.11;92.96
18533;BME280;9396;51.510;11.934;2022-11-20T10:32:52;100039.09;;;-0.16;93.03
18533;BME280;9396;51.510;11.934;2022-11-20T10:35:24;100051.06;;;-0.54;93.18
18533;BME280;9396;51.510;11.934;2022-11-20T10:37:56;100052.84;;;-0.54;93.21
18533;BME280;9396;51.510;11.934;2022-11-20T10:40:30;100039.13;;;-0.44;92.42
18533;BME280;9396;51.510;11.934;2022-11-20T10:43:01;100026.44;;;-0.22;92.51
18533;BME280;9396;51.510;11.934;2022-11-20T10:45:36;100025.06;;;-0.41;92.91
18533;BME280;9396;51.510;11.934;2022-11-20T10:48:20;100026.16;;;-0.45;93.27
18533;BME280;9396;51.510;11.934;2022-11-20T10:50:56;100031.50;;;-0.47;92.49
18533;BME280;9396;51.510;11.934;2022-11-20T10:53:36;100036.41;;;-0.42;92.64
18533;BME280;9396;51.510;11.934;2022-11-20T10:56:11;100018.03;;;-0.55;93.63
18533;BME280;9396;51.510;11.934;2022-11-20T10:58:45;100011.06;;;-0.54;93.39
18533;BME280;9396;51.510;11.934;2022-11-20T11:01:14;100018.78;;;-0.39;93.38
18533;BME280;9396;51.510;11.934;2022-11-20T11:03:41;100009.06;;;-0.37;93.70
18533;BME280;9396;51.510;11.934;2022-11-20T11:06:14;100003.09;;;-0.25;92.78
18533;BME280;9396;51.510;11.934;2022-11-20T11:08:46;99997.50;;;0.08;92.42
18533;BME280;9396;51.510;11.934;2022-11-20T11:11:20;99997.28;;;0.38;91.96
18533;BME280;9396;51.510;11.934;2022-11-20T11:13:48;99993.47;;;0.17;90.75
18533;BME280;9396;51.510;11.934;2022-11-20T11:16:22;100001.94;;;0.47;91.14
18533;BME280;9396;51.510;11.934;2022-11-20T11:18:49;99998.31;;;0.23;91.24
18533;BME280;9396;51.510;11.934;2022-11-20T11:21:23;99992.28;;;0.35;91.38
18533;BME280;9396;51.510;11.934;2022-11-20T11:23:59;99992.81;;;0.40;91.00
18533;BME280;9396;51.510;11.934;2022-11-20T11:26:26;99987.19;;;0.46;91.79
18533;BME280;9396;51.510;11.934;2022-11-20T11:28:54;99979.72;;;0.40;91.38
18533;BME280;9396;51.510;11.934;2022-11-20T11:31:25;99963.63;;;0.33;90.79
18533;BME280;9396;51.510;11.934;2022-11-20T11:34:03;99980.25;;;0.45;90.48
18533;BME280;9396;51.510;11.934;2022-11-20T11:36:33;99982.69;;;0.09;91.30
18533;BME280;9396;51.510;11.934;2022-11-20T11:39:02;99980.97;;;0.08;91.98
18533;BME280;9396;51.510;11.934;2022-11-20T11:41:32;99973.66;;;0.27;90.45
18533;BME280;9396;51.510;11.934;2022-11-20T11:44:03;99984.66;;;0.32;90.83
18533;BME280;9396;51.510;11.934;2022-11-20T11:46:57;99990.31;;;0.38;90.48
18533;BME280;9396;51.510;11.934;2022-11-20T11:49:24;99986.34;;;0.45;89.82
18533;BME280;9396;51.510;11.934;2022-11-20T11:52:00;99985.28;;;0.35;89.74
18533;BME280;9396;51.510;11.934;2022-11-20T11:54:31;99989.91;;;0.44;89.86
18533;BME280;9396;51.510;11.934;2022-11-20T11:57:01;99983.44;;;0.50;90.24
18533;BME280;9396;51.510;11.934;2022-11-20T11:59:40;99979.59;;;0.29;90.21
18533;BME280;9396;51.510;11.934;2022-11-20T12:02:18;99966.75;;;0.38;90.65
18533;BME280;9396;51.510;11.934;2022-11-20T12:04:54;99972.69;;;0.67;89.94
18533;BME280;9396;51.510;11.934;2022-11-20T12:07:35;99968.13;;;0.95;89.10
18533;BME280;9396;51.510;11.934;2022-11-20T12:10:07;99965.78;;;0.91;88.91
18533;BME280;9396;51.510;11.934;2022-11-20T12:12:43;99970.06;;;0.67;88.72
18533;BME280;9396;51.510;11.934;2022-11-20T12:15:13;99960.75;;;0.75;88.68
18533;BME280;9396;51.510;11.934;2022-11-20T12:17:42;99958.13;;;0.63;88.85
18533;BME280;9396;51.510;11.934;2022-11-20T12:20:13;99963.00;;;0.42;90.47
18533;BME280;9396;51.510;11.934;2022-11-20T12:22:49;99963.69;;;0.19;91.62
18533;BME280;9396;51.510;11.934;2022-11-20T12:25:22;99961.53;;;0.38;91.83
18533;BME280;9396;51.510;11.934;2022-11-20T12:28:17;99956.59;;;0.73;90.93
18533;BME280;9396;51.510;11.934;2022-11-20T12:30:55;99944.78;;;0.92;89.40
18533;BME280;9396;51.510;11.934;2022-11-20T12:33:38;99940.97;;;0.84;90.04
18533;BME280;9396;51.510;11.934;2022-11-20T12:36:19;99941.59;;;0.87;89.69
18533;BME280;9396;51.510;11.934;2022-11-20T12:39:05;99941.94;;;0.95;89.98
18533;BME280;9396;51.510;11.934;2022-11-20T12:41:47;99944.53;;;1.21;89.76
18533;BME280;9396;51.510;11.934;2022-11-20T12:44:46;99937.72;;;0.93;89.61
18533;BME280;9396;51.510;11.934;2022-11-20T12:47:53;99933.56;;;1.03;89.41
18533;BME280;9396;51.510;11.934;2022-11-20T12:50:29;99932.19;;;1.10;88.32
18533;BME280;9396;51.510;11.934;2022-11-20T12:53:03;99923.22;;;1.38;89.08
18533;BME280;9396;51.510;11.934;2022-11-20T12:55:43;99918.63;;;1.29;88.41
18533;BME280;9396;51.510;11.934;2022-11-20T12:58:16;99930.38;;;1.23;89.10
18533;BME280;9396;51.510;11.934;2022-11-20T13:00:54;99921.91;;;1.07;90.45
18533;BME280;9396;51.510;11.934;2022-11-20T13:03:41;99912.81;;;1.00;90.51
18533;BME280;9396;51.510;11.934;2022-11-20T13:06:13;99917.94;;;1.01;90.65